首页
METAR-TAF:

METAR-TAF

机场 :

安曼民航機場

安曼, 约旦

纬度: 31-59N, 经度: 035-59E, 海拔: 767米

当前天气观测

该预报发布于25分钟前的19:00 UTC
风速9节,风向东转东南
温度 24°C
湿度 29%
气压 1017 hPa
能見度: 4000
少量云层高于3500英尺
多云层高于10000英尺
浮尘

METAR: OJAM 221900Z 12009KT 4000 DU FEW035 BKN100 24/05 Q1017 NOSIG

时间: 22:25 (19:25 UTC)

预报

该预报发布于2小时和35分钟前的16:50 UTC
预报有效从22日的 18点(UTC)到 23日的 24点(UTC)
风速2节,风向多变
能見度: 5000
散云层高于4000英尺
几率 40%
从 22日的 20点(UTC)到 23日的 02点(UTC)
能見度: 3000
散云层高于4000英尺
散云层高于8000英尺
小阵雨
成为
从 23日的 08点(UTC)到 23日的 10点(UTC)
风速10节,风向西南
几率 40%
从 23日的 10点(UTC)到 23日的 18点(UTC)
风速16节,风向西南
能見度: 2000
高吹尘

TAF: OJAM 221650Z 2218/2324 VRB02KT 5000 HZ SCT040 PROB40 2220/2302 3000 -SHRA SCT040 SCT080 BECMG 2308/2310 23010KT PROB40 2310/2318 23016KT 2000 BLDU

超过4000个机场的气象观测和天气预报(METAR&TAF报告)。

可查询的气象台以黄色和红色小点在地图上表示。

将鼠标移到小点上方,可查看气象台名称。

然后点击查看天气观测和预报。

如需切换地图:点击带黑十字的绿色按钮放大地图;点击带横线的绿色按钮缩小地图;或者点击绿色箭头查看邻近地区的地图。


METAR-TAF: